Time;durP1;ratioP1;P1;durP2;ratioP2;P2;SDS_P1;SDS_P2;PMS_P1;PMS_P2;Temp;Humidity;BMP_temperature;BMP_pressure;BME280_temperature;BME280_humidity;BME280_pressure;Samples;Min_cycle;Max_cycle;Signal;HPM_P1;HPM_P2
2023/04/20 00:01:46;;;;;;;;;;;;;;;8.03;74.60;100119.50;5080187;28;19926;-54
2023/04/20 00:04:14;;;;;;;;;;;;;;;8.02;74.93;100115.13;5083167;28;20041;-54
2023/04/20 00:06:41;;;;;;;;;;;;;;;7.99;75.77;100105.44;5077502;28;19916;-54
2023/04/20 00:09:06;;;;;;;;;;;;;;;7.95;75.19;100111.72;5083842;28;19925;-54
2023/04/20 00:11:32;;;;;;;;;;;;;;;7.91;75.08;100111.81;5089475;28;19916;-54
2023/04/20 00:13:57;;;;;;;;;;;;;;;7.89;74.53;100101.25;5090068;28;19924;-54
2023/04/20 00:16:23;;;;;;;;;;;;;;;7.92;74.84;100102.97;5090683;28;19916;-54
2023/04/20 00:18:48;;;;;;;;;;;;;;;7.89;73.69;100093.31;5091295;28;19916;-54
2023/04/20 00:21:13;;;;;;;;;;;;;;;7.89;74.62;100092.44;5091384;28;19920;-54
2023/04/20 00:23:39;;;;;;;;;;;;;;;7.91;75.07;100093.25;5092848;28;20501;-54
2023/04/20 00:26:04;;;;;;;;;;;;;;;7.91;74.88;100087.97;5091732;28;19916;-54
2023/04/20 00:28:30;;;;;;;;;;;;;;;7.88;75.80;100080.97;5092286;28;20236;-54
2023/04/20 00:30:55;;;;;;;;;;;;;;;7.88;75.09;100080.97;5092703;28;19916;-54
2023/04/20 00:33:20;;;;;;;;;;;;;;;7.87;75.13;100076.56;5091330;28;19920;-54
2023/04/20 00:35:45;;;;;;;;;;;;;;;7.84;75.15;100081.94;5092893;28;19971;-54
2023/04/20 00:38:11;;;;;;;;;;;;;;;7.82;75.34;100073.13;5093008;28;19920;-54
2023/04/20 00:40:36;;;;;;;;;;;;;;;7.80;75.49;100072.31;5092004;28;19927;-54
2023/04/20 00:43:11;;;;;;;;;;;;;;;7.80;75.82;100068.78;5092802;28;20014;-54
2023/04/20 00:45:36;;;;;;;;;;;;;;;7.74;75.64;100072.44;5092372;28;19924;-54
2023/04/20 00:48:01;;;;;;;;;;;;;;;7.69;76.08;100065.50;5092643;28;19919;-54
2023/04/20 00:50:27;;;;;;;;;;;;;;;7.65;76.51;100059.41;5092983;28;20005;-54
2023/04/20 00:52:52;;;;;;;;;;;;;;;7.57;76.38;100050.75;5091938;28;19931;-54
2023/04/20 00:55:18;;;;;;;;;;;;;;;7.47;77.60;100054.47;5092473;28;19935;-54
2023/04/20 00:57:43;;;;;;;;;;;;;;;7.39;78.16;100051.09;5091341;28;20630;-54
2023/04/20 01:00:09;;;;;;;;;;;;;;;7.32;79.37;100048.59;5092699;28;20007;-54
2023/04/20 01:02:35;;;;;;;;;;;;;;;7.28;78.82;100046.91;5092882;28;19916;-56
2023/04/20 01:05:01;;;;;;;;;;;;;;;7.21;79.85;100037.34;5100072;28;19946;-56
2023/04/20 01:07:26;;;;;;;;;;;;;;;7.14;79.84;100031.28;5113265;28;20016;-56
2023/04/20 01:09:51;;;;;;;;;;;;;;;7.08;80.05;100028.78;5104130;28;19922;-56
2023/04/20 01:12:16;;;;;;;;;;;;;;;7.03;80.29;100025.34;5092620;28;19916;-56
2023/04/20 01:14:42;;;;;;;;;;;;;;;7.02;81.17;100023.56;5093248;28;19967;-56
2023/04/20 01:17:07;;;;;;;;;;;;;;;7.05;81.44;100012.94;5094898;28;20413;-56
2023/04/20 01:19:32;;;;;;;;;;;;;;;7.05;81.39;100017.38;5090616;28;19920;-56
2023/04/20 01:21:57;;;;;;;;;;;;;;;7.02;81.35;100005.06;5090623;28;19939;-56
2023/04/20 01:24:23;;;;;;;;;;;;;;;6.97;81.70;99999.00;5091766;28;19920;-55
2023/04/20 01:26:48;;;;;;;;;;;;;;;6.95;81.43;100006.09;5091893;28;20470;-55
2023/04/20 01:29:13;;;;;;;;;;;;;;;6.95;81.46;100002.56;5091319;28;19916;-55
2023/04/20 01:31:39;;;;;;;;;;;;;;;6.87;81.71;99996.56;5091121;28;19916;-56
2023/04/20 01:34:04;;;;;;;;;;;;;;;6.79;81.75;99991.38;5090512;28;20478;-55
2023/04/20 01:36:30;;;;;;;;;;;;;;;6.75;82.08;99991.47;5091474;28;19958;-56
2023/04/20 01:38:55;;;;;;;;;;;;;;;6.70;82.70;99983.66;5091840;28;19919;-56
2023/04/20 01:41:20;;;;;;;;;;;;;;;6.62;83.50;99980.25;5092219;28;20379;-55
2023/04/20 01:43:46;;;;;;;;;;;;;;;6.56;83.13;99973.31;5091177;28;19928;-55
2023/04/20 01:46:11;;;;;;;;;;;;;;;6.50;83.92;99973.41;5091882;28;20390;-55
2023/04/20 01:48:36;;;;;;;;;;;;;;;6.46;84.85;99974.34;5091061;28;19924;-56
2023/04/20 01:51:01;;;;;;;;;;;;;;;6.42;84.55;99962.13;5092113;28;19951;-56
2023/04/20 01:53:27;;;;;;;;;;;;;;;6.41;85.66;99959.47;5091969;28;19923;-56
2023/04/20 01:55:53;;;;;;;;;;;;;;;6.39;86.04;99958.66;5091045;28;20006;-55
2023/04/20 01:58:18;;;;;;;;;;;;;;;6.39;86.33;99956.84;5094271;28;19924;-56
2023/04/20 02:00:43;;;;;;;;;;;;;;;6.41;86.55;99954.19;5091791;28;19952;-56
2023/04/20 02:03:08;;;;;;;;;;;;;;;6.39;86.24;99950.72;5090812;28;19926;-56
2023/04/20 02:05:34;;;;;;;;;;;;;;;6.40;86.78;99948.06;5090703;28;19920;-56
2023/04/20 02:07:59;;;;;;;;;;;;;;;6.41;86.73;99955.06;5091544;28;19939;-55
2023/04/20 02:10:24;;;;;;;;;;;;;;;6.41;86.26;99954.19;5072204;28;19920;-56
2023/04/20 02:12:50;;;;;;;;;;;;;;;6.39;87.01;99956.00;5091370;28;19916;-55
2023/04/20 02:15:15;;;;;;;;;;;;;;;6.41;86.31;99949.78;5090894;28;19926;-56
2023/04/20 02:17:41;;;;;;;;;;;;;;;6.43;85.81;99957.69;5090859;28;19916;-55
2023/04/20 02:20:08;;;;;;;;;;;;;;;6.38;85.50;99949.84;5091452;28;19920;-55
2023/04/20 02:22:34;;;;;;;;;;;;;;;6.40;86.32;99948.06;5090365;28;19922;-55
2023/04/20 02:25:00;;;;;;;;;;;;;;;6.41;86.26;99948.91;5089789;28;20360;-55
2023/04/20 02:27:25;;;;;;;;;;;;;;;6.38;86.13;99938.38;5090332;28;20025;-55
2023/04/20 02:29:51;;;;;;;;;;;;;;;6.37;85.85;99934.03;5090056;28;20542;-55
2023/04/20 02:32:16;;;;;;;;;;;;;;;6.34;86.38;99932.28;5089821;28;19924;-55
2023/04/20 02:34:41;;;;;;;;;;;;;;;6.29;86.02;99935.91;5088465;28;20284;-55
2023/04/20 02:37:06;;;;;;;;;;;;;;;6.27;86.34;99924.50;5088734;28;19934;-55
2023/04/20 02:39:32;;;;;;;;;;;;;;;6.31;86.12;99931.50;5090020;28;19916;-55
2023/04/20 02:41:57;;;;;;;;;;;;;;;6.28;85.71;99927.13;5089737;28;20349;-55
2023/04/20 02:44:22;;;;;;;;;;;;;;;6.29;86.01;99922.72;5088760;28;19962;-55
2023/04/20 02:46:47;;;;;;;;;;;;;;;6.27;86.39;99913.94;5089716;28;19920;-55
2023/04/20 02:49:13;;;;;;;;;;;;;;;6.25;86.62;99911.31;5088503;28;20458;-55
2023/04/20 02:51:38;;;;;;;;;;;;;;;6.24;86.45;99911.34;5090795;28;19920;-55
2023/04/20 02:54:03;;;;;;;;;;;;;;;6.28;86.42;99907.75;5090904;28;19989;-55
2023/04/20 02:56:29;;;;;;;;;;;;;;;6.29;86.42;99915.66;5089840;28;19916;-55
2023/04/20 02:58:55;;;;;;;;;;;;;;;6.29;86.83;99904.22;5090232;28;19923;-55
2023/04/20 03:01:20;;;;;;;;;;;;;;;6.29;86.18;99902.44;5089816;28;19912;-55
2023/04/20 03:03:45;;;;;;;;;;;;;;;6.25;85.55;99902.53;5081225;28;19923;-55
2023/04/20 03:06:11;;;;;;;;;;;;;;;6.24;85.92;99903.44;5090382;28;19935;-55
2023/04/20 03:08:36;;;;;;;;;;;;;;;6.22;86.16;99894.66;5089862;28;20003;-55
2023/04/20 03:11:01;;;;;;;;;;;;;;;6.21;85.74;99898.22;5089904;28;19970;-55
2023/04/20 03:13:26;;;;;;;;;;;;;;;6.20;86.24;99899.09;5089402;28;19920;-55
2023/04/20 03:15:52;;;;;;;;;;;;;;;6.20;86.20;99891.16;5090261;28;19977;-55
2023/04/20 03:18:17;;;;;;;;;;;;;;;6.21;86.24;99895.56;5090216;28;20455;-55
2023/04/20 03:20:42;;;;;;;;;;;;;;;6.21;85.67;99887.66;5096702;28;19916;-56
2023/04/20 03:23:09;;;;;;;;;;;;;;;6.17;84.89;99893.88;5111122;28;19915;-56
2023/04/20 03:25:34;;;;;;;;;;;;;;;6.26;85.67;99888.44;5105902;28;19922;-55
2023/04/20 03:27:59;;;;;;;;;;;;;;;6.24;84.33;99892.88;5093031;28;19916;-55
2023/04/20 03:30:24;;;;;;;;;;;;;;;6.28;84.64;99889.25;5090045;28;19991;-56
2023/04/20 03:32:50;;;;;;;;;;;;;;;6.28;84.23;99894.53;5089374;28;19920;-55
2023/04/20 03:35:16;;;;;;;;;;;;;;;6.28;84.40;99905.09;5089065;28;19966;-55
2023/04/20 03:37:41;;;;;;;;;;;;;;;6.27;83.94;99898.09;5090142;28;20639;-55
2023/04/20 03:40:07;;;;;;;;;;;;;;;6.30;84.08;99898.91;5090821;28;19928;-55
2023/04/20 03:42:32;;;;;;;;;;;;;;;6.33;84.07;99892.69;5110413;28;20509;-55
2023/04/20 03:44:58;;;;;;;;;;;;;;;6.33;84.11;99887.41;5110151;28;19915;-56
2023/04/20 03:47:23;;;;;;;;;;;;;;;6.29;84.11;99891.88;5092722;28;19920;-55
2023/04/20 03:49:48;;;;;;;;;;;;;;;6.24;84.31;99882.31;5085308;28;19916;-56
2023/04/20 03:52:13;;;;;;;;;;;;;;;6.21;84.03;99882.38;5072043;28;20011;-55
2023/04/20 03:54:39;;;;;;;;;;;;;;;6.18;84.32;99883.28;5072873;28;20439;-55
2023/04/20 03:57:05;;;;;;;;;;;;;;;6.16;84.09;99876.28;5090709;28;20038;-56
2023/04/20 03:59:30;;;;;;;;;;;;;;;6.13;83.89;99881.59;5109599;28;19973;-55
2023/04/20 04:01:55;;;;;;;;;;;;;;;6.10;84.07;99884.28;5096725;28;19916;-55
2023/04/20 04:04:21;;;;;;;;;;;;;;;6.09;83.75;99879.91;5096029;28;20386;-55
2023/04/20 04:06:46;;;;;;;;;;;;;;;6.14;83.82;99880.72;5107636;28;20000;-56
2023/04/20 04:09:11;;;;;;;;;;;;;;;6.15;83.57;99882.44;5093559;28;19916;-56
2023/04/20 04:11:36;;;;;;;;;;;;;;;6.16;83.64;99886.84;5093922;28;19963;-56
2023/04/20 04:14:04;;;;;;;;;;;;;;;6.13;83.46;99882.47;5092015;28;19916;-55
2023/04/20 04:16:29;;;;;;;;;;;;;;;6.08;83.68;99875.56;5073967;28;19913;-55
2023/04/20 04:18:55;;;;;;;;;;;;;;;6.04;83.72;99884.41;5085798;28;20299;-56
2023/04/20 04:21:20;;;;;;;;;;;;;;;5.99;83.70;99883.59;5094149;28;20295;-56
2023/04/20 04:23:46;;;;;;;;;;;;;;;5.94;83.95;99883.69;5074344;28;19919;-56
2023/04/20 04:26:11;;;;;;;;;;;;;;;5.94;85.06;99888.09;5092207;28;19923;-56
2023/04/20 04:28:37;;;;;;;;;;;;;;;5.95;85.54;99892.47;5091582;28;20541;-56
2023/04/20 04:31:05;;;;;;;;;;;;;;;5.90;84.67;99886.38;5090595;28;20050;-55
2023/04/20 04:33:32;;;;;;;;;;;;;;;5.89;85.59;99876.72;5091093;28;19928;-56
2023/04/20 04:35:57;;;;;;;;;;;;;;;5.88;85.18;99880.28;5088396;28;19919;-56
2023/04/20 04:38:23;;;;;;;;;;;;;;;5.88;85.63;99877.63;5090930;28;19927;-56
2023/04/20 04:40:48;;;;;;;;;;;;;;;5.81;85.50;99870.69;5093004;28;19943;-55
2023/04/20 04:43:14;;;;;;;;;;;;;;;5.79;85.10;99877.75;5092352;28;19916;-56
2023/04/20 04:45:40;;;;;;;;;;;;;;;5.79;84.39;99883.00;5093320;28;19920;-56
2023/04/20 04:48:05;;;;;;;;;;;;;;;5.57;85.01;99828.84;5093170;28;19923;-55
2023/04/20 04:50:31;;;;;;;;;;;;;;;5.93;85.56;99881.09;5093218;28;19924;-56
2023/04/20 04:52:56;;;;;;;;;;;;;;;5.99;84.80;99876.56;5092401;28;19936;-56
2023/04/20 04:55:21;;;;;;;;;;;;;;;6.04;84.67;99873.84;5074096;28;19950;-56
2023/04/20 04:57:47;;;;;;;;;;;;;;;6.04;84.61;99871.22;5092011;28;19920;-56
2023/04/20 05:00:12;;;;;;;;;;;;;;;6.03;85.22;99872.13;5091958;28;19928;-56
2023/04/20 05:02:38;;;;;;;;;;;;;;;6.07;84.85;99868.50;5091402;28;19970;-56
2023/04/20 05:05:03;;;;;;;;;;;;;;;6.08;85.63;99876.41;5101152;28;20018;-56
2023/04/20 05:07:28;;;;;;;;;;;;;;;6.16;84.49;99869.22;5082493;28;19942;-56
2023/04/20 05:09:54;;;;;;;;;;;;;;;6.22;84.89;99868.25;5092507;28;20063;-55
2023/04/20 05:12:19;;;;;;;;;;;;;;;6.28;83.84;99873.41;5091596;28;19916;-56
2023/04/20 05:14:45;;;;;;;;;;;;;;;6.34;83.87;99870.69;5091519;28;20331;-56
2023/04/20 05:17:10;;;;;;;;;;;;;;;6.45;84.32;99866.06;5094543;28;19973;-56
2023/04/20 05:19:35;;;;;;;;;;;;;;;6.88;85.08;99867.00;5096020;28;19919;-56
2023/04/20 05:22:00;;;;;;;;;;;;;;;7.09;81.19;99861.25;5111623;28;20390;-56
2023/04/20 05:24:29;;;;;;;;;;;;;;;7.17;79.92;99859.31;5091610;28;20195;-55
2023/04/20 05:26:54;;;;;;;;;;;;;;;7.34;80.70;99870.41;5091015;28;19931;-56
2023/04/20 05:29:20;;;;;;;;;;;;;;;7.65;80.97;99868.81;5090367;28;20391;-56
2023/04/20 05:31:45;;;;;;;;;;;;;;;8.12;79.44;99875.63;5082172;28;19927;-55
2023/04/20 05:34:10;;;;;;;;;;;;;;;8.24;77.36;99867.38;5076214;28;19927;-55
2023/04/20 05:36:36;;;;;;;;;;;;;;;8.33;77.11;99864.50;5077580;28;20287;-56
2023/04/20 05:39:01;;;;;;;;;;;;;;;8.61;76.22;99867.28;5072803;28;20376;-56
2023/04/20 05:41:27;;;;;;;;;;;;;;;9.21;75.15;99863.75;5091109;28;20035;-56
2023/04/20 05:43:53;;;;;;;;;;;;;;;10.18;70.55;99866.88;5089569;28;19916;-56
2023/04/20 05:46:18;;;;;;;;;;;;;;;10.61;66.67;99861.84;5088469;28;19920;-56
2023/04/20 05:48:43;;;;;;;;;;;;;;;10.73;65.55;99867.66;5090654;28;19962;-55
2023/04/20 05:51:09;;;;;;;;;;;;;;;10.66;65.14;99864.34;5090569;28;20338;-55
2023/04/20 05:53:35;;;;;;;;;;;;;;;10.94;63.34;99861.56;5091123;28;19916;-55
2023/04/20 05:56:01;;;;;;;;;;;;;;;11.46;63.88;99861.34;5091128;28;19920;-55
2023/04/20 05:58:26;;;;;;;;;;;;;;;12.54;59.98;99858.66;5090698;28;19982;-56
2023/04/20 06:00:52;;;;;;;;;;;;;;;13.18;53.90;99853.13;5091320;28;19913;-55
2023/04/20 06:03:17;;;;;;;;;;;;;;;13.49;54.31;99852.59;5104288;28;20034;-55
2023/04/20 06:05:42;;;;;;;;;;;;;;;13.41;53.34;99859.22;5089763;28;20406;-55
2023/04/20 06:08:08;;;;;;;;;;;;;;;13.01;53.64;99855.69;5089616;28;19916;-55
2023/04/20 06:10:33;;;;;;;;;;;;;;;12.55;53.93;99858.59;5088854;28;19920;-55
2023/04/20 06:12:58;;;;;;;;;;;;;;;13.26;54.43;99850.13;5090187;28;19916;-55
2023/04/20 06:15:24;;;;;;;;;;;;;;;13.42;52.07;99851.13;5089366;28;20718;-55
2023/04/20 06:17:49;;;;;;;;;;;;;;;13.59;52.18;99853.84;5088009;28;19912;-55
2023/04/20 06:20:15;;;;;;;;;;;;;;;13.55;52.73;99856.75;5090018;28;19920;-55
2023/04/20 06:22:42;;;;;;;;;;;;;;;13.37;52.17;99860.28;5090688;28;19939;-55
2023/04/20 06:25:07;;;;;;;;;;;;;;;13.26;52.90;99849.25;5090880;28;19916;-55
2023/04/20 06:27:33;;;;;;;;;;;;;;;12.95;53.53;99850.59;5090466;28;19916;-56
2023/04/20 06:29:58;;;;;;;;;;;;;;;12.52;54.22;99850.72;5089129;28;19985;-55
2023/04/20 06:32:23;;;;;;;;;;;;;;;12.40;55.86;99845.94;5087227;28;19916;-56
2023/04/20 06:34:49;;;;;;;;;;;;;;;12.46;56.68;99851.00;5088922;28;20411;-55
2023/04/20 06:37:15;;;;;;;;;;;;;;;12.41;56.39;99841.44;5089471;28;19922;-55
2023/04/20 06:39:40;;;;;;;;;;;;;;;12.46;56.96;99837.66;5088967;28;19924;-55
2023/04/20 06:42:07;;;;;;;;;;;;;;;12.54;56.35;99838.19;5089606;28;19916;-56
2023/04/20 06:44:32;;;;;;;;;;;;;;;12.72;54.57;99837.41;5090592;28;19916;-56
2023/04/20 06:46:57;;;;;;;;;;;;;;;12.75;53.45;99842.59;5089207;28;20388;-55
2023/04/20 06:49:23;;;;;;;;;;;;;;;13.03;54.81;99832.44;5089556;28;19916;-56
2023/04/20 06:51:48;;;;;;;;;;;;;;;13.00;54.61;99821.88;5090149;28;19912;-55
2023/04/20 06:54:13;;;;;;;;;;;;;;;13.26;53.43;99823.41;5088949;28;19949;-56
2023/04/20 06:56:38;;;;;;;;;;;;;;;13.34;54.36;99826.59;5089745;28;19916;-56
2023/04/20 06:59:04;;;;;;;;;;;;;;;13.94;53.14;99820.06;5081560;28;19920;-55
2023/04/20 07:01:29;;;;;;;;;;;;;;;14.38;52.41;99829.47;5070502;28;20103;-56
2023/04/20 07:03:55;;;;;;;;;;;;;;;14.64;52.38;99814.72;5068055;28;19917;-56
2023/04/20 07:06:20;;;;;;;;;;;;;;;14.72;50.57;99826.78;5070210;28;20046;-56
2023/04/20 07:08:45;;;;;;;;;;;;;;;14.58;50.71;99826.63;5064061;28;20149;-56
2023/04/20 07:11:11;;;;;;;;;;;;;;;14.97;51.06;99818.31;5065395;28;19908;-56
2023/04/20 07:13:36;;;;;;;;;;;;;;;15.08;48.88;99822.16;5068130;28;19935;-56
2023/04/20 07:16:05;;;;;;;;;;;;;;;15.31;50.19;99812.84;5068718;28;19974;-56
2023/04/20 07:18:30;;;;;;;;;;;;;;;15.50;50.23;99813.63;5051228;28;19927;-56
2023/04/20 07:20:55;;;;;;;;;;;;;;;15.92;50.07;99818.34;5065895;28;20007;-56
2023/04/20 07:23:21;;;;;;;;;;;;;;;16.18;48.29;99809.63;5067849;28;19920;-56
2023/04/20 07:25:46;;;;;;;;;;;;;;;16.35;47.65;99812.22;5064741;28;19923;-57
2023/04/20 07:28:11;;;;;;;;;;;;;;;16.40;46.23;99813.69;5069726;28;19969;-56
2023/04/20 07:30:37;;;;;;;;;;;;;;;16.76;47.46;99811.50;5066689;28;19926;-56
2023/04/20 07:33:02;;;;;;;;;;;;;;;16.95;46.75;99800.50;5064122;28;19985;-56
2023/04/20 07:35:27;;;;;;;;;;;;;;;16.89;45.64;99801.72;5065914;28;20351;-57
2023/04/20 07:37:52;;;;;;;;;;;;;;;17.12;46.79;99802.97;5066330;28;19943;-56
2023/04/20 07:40:18;;;;;;;;;;;;;;;17.17;44.08;99798.19;5069299;28;19920;-56
2023/04/20 07:42:43;;;;;;;;;;;;;;;17.08;44.63;99801.47;5068536;28;19917;-56
2023/04/20 07:45:09;;;;;;;;;;;;;;;17.02;44.60;99807.19;5067846;28;20285;-56
2023/04/20 07:47:35;;;;;;;;;;;;;;;17.13;44.47;99807.41;5060628;28;19979;-56
2023/04/20 07:50:00;;;;;;;;;;;;;;;17.12;44.71;99802.97;5064135;28;20703;-56
2023/04/20 07:52:25;;;;;;;;;;;;;;;17.45;43.65;99800.88;5061684;28;19920;-56
2023/04/20 07:54:54;;;;;;;;;;;;;;;17.31;44.49;99800.88;5063378;28;20308;-57
2023/04/20 07:57:19;;;;;;;;;;;;;;;17.28;45.00;99795.66;5062978;28;19917;-56
2023/04/20 07:59:45;;;;;;;;;;;;;;;17.46;44.70;99794.53;5078182;28;19993;-56
2023/04/20 08:02:11;;;;;;;;;;;;;;;18.03;44.86;99798.81;5082148;28;19931;-57
2023/04/20 08:04:39;;;;;;;;;;;;;;;18.08;42.78;99796.69;5085974;28;19924;-56
2023/04/20 08:07:04;;;;;;;;;;;;;;;18.33;43.41;99790.53;5082907;28;19919;-56
2023/04/20 08:09:29;;;;;;;;;;;;;;;18.16;43.33;99799.72;5084086;28;19932;-56
2023/04/20 08:11:55;;;;;;;;;;;;;;;18.26;43.63;99800.84;5085821;28;20372;-57
2023/04/20 08:14:20;;;;;;;;;;;;;;;18.42;43.34;99797.16;5084699;28;19928;-58
2023/04/20 08:16:46;;;;;;;;;;;;;;;18.75;43.04;99790.28;5085953;28;19920;-58
2023/04/20 08:19:11;;;;;;;;;;;;;;;18.64;42.85;99779.41;5085360;28;19957;-55
2023/04/20 08:21:37;;;;;;;;;;;;;;;18.82;42.24;99782.63;5084801;28;19924;-55
2023/04/20 08:24:03;;;;;;;;;;;;;;;18.52;42.63;99774.00;5083090;28;19916;-55
2023/04/20 08:26:28;;;;;;;;;;;;;;;18.67;42.89;99768.41;5084085;28;20597;-55
2023/04/20 08:28:53;;;;;;;;;;;;;;;18.70;40.71;99772.75;5083668;28;19924;-55
2023/04/20 08:31:19;;;;;;;;;;;;;;;18.99;42.51;99769.72;5084308;28;20379;-55
2023/04/20 08:33:45;;;;;;;;;;;;;;;18.96;42.15;99764.53;5086208;28;19924;-54
2023/04/20 08:36:10;;;;;;;;;;;;;;;19.05;42.78;99761.19;5086102;28;20463;-55
2023/04/20 08:38:36;;;;;;;;;;;;;;;19.46;40.32;99763.63;5065668;28;19926;-55
2023/04/20 08:41:01;;;;;;;;;;;;;;;19.26;41.23;99754.25;5092358;28;20295;-55
2023/04/20 08:43:27;;;;;;;;;;;;;;;19.43;41.48;99756.63;5092237;28;20367;-55
2023/04/20 08:45:53;;;;;;;;;;;;;;;19.92;41.10;99751.16;5091524;28;19963;-55
2023/04/20 08:48:19;;;;;;;;;;;;;;;19.98;39.99;99761.53;5072981;28;19916;-56
2023/04/20 08:50:45;;;;;;;;;;;;;;;20.43;41.90;99747.25;5091362;28;19922;-56
2023/04/20 08:53:12;;;;;;;;;;;;;;;20.09;39.39;99748.06;5091304;28;19916;-56
2023/04/20 08:55:38;;;;;;;;;;;;;;;20.01;40.54;99744.22;5092274;28;19924;-56
2023/04/20 08:58:03;;;;;;;;;;;;;;;20.52;42.14;99749.25;5090127;28;19916;-56
2023/04/20 09:00:29;;;;;;;;;;;;;;;20.40;39.74;99752.88;5071078;28;19974;-56
2023/04/20 09:02:54;;;;;;;;;;;;;;;20.94;39.46;99745.88;5072714;28;19958;-57
2023/04/20 09:05:27;;;;;;;;;;;;;;;21.08;39.47;99749.34;5083250;28;19955;-57
2023/04/20 09:07:58;;;;;;;;;;;;;;;21.11;37.76;99751.81;5087261;28;20357;-56
2023/04/20 09:10:24;;;;;;;;;;;;;;;20.60;39.28;99748.66;5072303;28;20007;-56
2023/04/20 09:12:50;;;;;;;;;;;;;;;21.01;39.07;99749.00;5072596;28;19987;-56
2023/04/20 09:15:26;;;;;;;;;;;;;;;21.49;38.59;99742.34;5070704;28;19947;-57
2023/04/20 09:17:51;;;;;;;;;;;;;;;21.53;37.96;99740.25;5071798;28;19920;-57
2023/04/20 09:20:25;;;;;;;;;;;;;;;21.70;37.45;99737.00;5073611;28;19982;-57
2023/04/20 09:22:53;;;;;;;;;;;;;;;21.28;37.74;99737.81;5071939;28;19919;-57
2023/04/20 09:25:18;;;;;;;;;;;;;;;21.37;38.02;99734.34;5071655;28;20408;-57
2023/04/20 09:27:54;;;;;;;;;;;;;;;21.85;40.08;99727.66;5072234;28;19927;-57
2023/04/20 09:30:19;;;;;;;;;;;;;;;22.47;38.76;99727.75;5071349;28;19916;-57
2023/04/20 09:32:45;;;;;;;;;;;;;;;21.90;37.62;99729.00;5069835;28;19974;-57
2023/04/20 09:35:11;;;;;;;;;;;;;;;20.66;38.35;99724.69;5069217;28;19924;-57
2023/04/20 09:37:45;;;;;;;;;;;;;;;19.85;39.96;99722.06;5069893;28;20331;-57
2023/04/20 09:40:11;;;;;;;;;;;;;;;18.88;42.85;99718.38;5069961;28;19927;-57
2023/04/20 09:42:38;;;;;;;;;;;;;;;18.64;42.35;99714.75;5070683;28;20015;-56
2023/04/20 09:45:04;;;;;;;;;;;;;;;19.13;42.15;99717.50;5070504;28;19978;-57
2023/04/20 09:47:30;;;;;;;;;;;;;;;18.88;42.30;99704.06;5071972;28;19955;-56
2023/04/20 09:49:55;;;;;;;;;;;;;;;18.40;42.68;99704.81;5071148;28;19959;-57
2023/04/20 09:52:21;;;;;;;;;;;;;;;18.08;43.25;99710.56;5072155;28;19924;-56
2023/04/20 09:54:47;;;;;;;;;;;;;;;18.91;43.89;99698.47;5071219;28;20387;-57
2023/04/20 09:57:13;;;;;;;;;;;;;;;19.16;43.12;99706.50;5074080;28;19927;-56
2023/04/20 09:59:41;;;;;;;;;;;;;;;19.10;42.25;99702.41;5063983;28;20685;-57
2023/04/20 10:02:07;;;;;;;;;;;;;;;19.61;42.84;99697.75;5071851;28;19970;-56
2023/04/20 10:04:33;;;;;;;;;;;;;;;20.18;38.84;99693.38;5071842;28;20525;-56
2023/04/20 10:07:02;;;;;;;;;;;;;;;21.29;39.27;99688.97;5070988;28;19920;-56
2023/04/20 10:09:31;;;;;;;;;;;;;;;21.67;38.01;99686.69;5070476;28;20402;-56
2023/04/20 10:12:06;;;;;;;;;;;;;;;20.37;36.65;99688.28;5070279;28;20296;-56
2023/04/20 10:14:31;;;;;;;;;;;;;;;19.09;40.23;99689.03;5071387;28;19943;-56
2023/04/20 10:16:58;;;;;;;;;;;;;;;18.48;41.85;99697.06;5071260;28;19920;-56
2023/04/20 10:19:23;;;;;;;;;;;;;;;18.18;42.62;99683.84;5052113;28;19962;-56
2023/04/20 10:21:49;;;;;;;;;;;;;;;18.57;43.11;99678.41;5071436;28;19917;-56
2023/04/20 10:24:15;;;;;;;;;;;;;;;19.13;41.14;99683.31;5069894;28;19920;-56
2023/04/20 10:26:44;;;;;;;;;;;;;;;19.06;41.41;99678.50;5056642;28;19920;-56
2023/04/20 10:29:11;;;;;;;;;;;;;;;19.22;40.99;99668.31;5052380;28;19963;-56
2023/04/20 10:31:40;;;;;;;;;;;;;;;19.26;40.84;99664.38;5069940;28;19916;-56
2023/04/20 10:34:06;;;;;;;;;;;;;;;18.70;41.38;99675.75;5071445;28;19916;-55
2023/04/20 10:36:35;;;;;;;;;;;;;;;18.29;42.44;99667.81;5070229;28;19925;-56
2023/04/20 10:39:13;;;;;;;;;;;;;;;17.93;42.82;99667.66;5068806;28;19916;-56
2023/04/20 10:41:48;;;;;;;;;;;;;;;17.63;45.01;99675.97;5070322;28;19974;-55
2023/04/20 10:44:14;;;;;;;;;;;;;;;17.34;44.95;99662.69;5070052;28;20446;-56
2023/04/20 10:46:39;;;;;;;;;;;;;;;17.33;45.16;99675.25;5069484;28;19924;-55
2023/04/20 10:49:04;;;;;;;;;;;;;;;17.47;44.73;99675.25;5069781;28;19916;-56
2023/04/20 10:51:30;;;;;;;;;;;;;;;16.68;44.58;99678.63;5051454;28;19974;-56
2023/04/20 10:54:05;;;;;;;;;;;;;;;16.23;45.98;99678.72;5071138;28;19932;-56
2023/04/20 10:56:50;;;;;;;;;;;;;;;16.20;47.55;99677.13;5071001;28;20007;-56
2023/04/20 10:59:20;;;;;;;;;;;;;;;16.40;47.73;99675.88;5080324;28;19924;-56
2023/04/20 11:01:45;;;;;;;;;;;;;;;16.77;46.41;99678.91;5090922;28;19923;-57
2023/04/20 11:04:11;;;;;;;;;;;;;;;16.81;46.15;99674.22;5090122;28;20364;-56
2023/04/20 11:06:38;;;;;;;;;;;;;;;16.78;46.11;99669.03;5090173;28;20014;-56
2023/04/20 11:09:03;;;;;;;;;;;;;;;16.74;46.90;99667.47;5091322;28;19916;-56
2023/04/20 11:11:29;;;;;;;;;;;;;;;16.76;47.03;99666.44;5090704;28;19966;-56
2023/04/20 11:14:05;;;;;;;;;;;;;;;16.87;48.48;99655.88;5091191;28;20331;-56
2023/04/20 11:16:30;;;;;;;;;;;;;;;16.74;46.93;99667.47;5089880;28;19920;-56
2023/04/20 11:18:57;;;;;;;;;;;;;;;16.57;47.34;99659.66;5093228;28;19916;-55
2023/04/20 11:21:22;;;;;;;;;;;;;;;16.52;47.43;99656.38;5091020;28;20001;-56
2023/04/20 11:23:48;;;;;;;;;;;;;;;16.50;47.84;99658.28;5089629;28;19967;-56
2023/04/20 11:26:14;;;;;;;;;;;;;;;16.59;48.76;99663.09;5090593;28;19916;-55
2023/04/20 11:28:54;;;;;;;;;;;;;;;16.32;47.76;99654.03;5089892;28;19961;-56
2023/04/20 11:31:20;;;;;;;;;;;;;;;15.87;47.79;99656.81;5090592;28;20014;-55
2023/04/20 11:33:45;;;;;;;;;;;;;;;15.68;48.98;99670.47;5090606;28;20335;-56
2023/04/20 11:36:17;;;;;;;;;;;;;;;15.60;50.17;99668.22;5088760;28;19916;-55
2023/04/20 11:38:43;;;;;;;;;;;;;;;15.24;49.25;99670.31;5089756;28;20407;-56
2023/04/20 11:41:08;;;;;;;;;;;;;;;15.00;51.36;99669.03;5088946;28;19912;-55
2023/04/20 11:43:34;;;;;;;;;;;;;;;15.12;54.36;99673.66;5076523;28;20396;-56
2023/04/20 11:46:01;;;;;;;;;;;;;;;15.24;51.53;99661.38;5069298;28;19916;-56
2023/04/20 11:48:30;;;;;;;;;;;;;;;15.48;52.59;99655.53;5088110;28;20423;-56
2023/04/20 11:50:55;;;;;;;;;;;;;;;15.65;50.99;99658.09;5089954;28;20399;-56
2023/04/20 11:53:20;;;;;;;;;;;;;;;15.78;49.35;99658.25;5071403;28;19916;-56
2023/04/20 11:55:46;;;;;;;;;;;;;;;16.03;49.83;99654.94;5090298;28;19955;-57
2023/04/20 11:58:11;;;;;;;;;;;;;;;16.82;49.16;99655.31;5090162;28;19924;-56
2023/04/20 12:00:36;;;;;;;;;;;;;;;16.79;47.94;99670.75;5090485;28;19935;-56
2023/04/20 12:03:01;;;;;;;;;;;;;;;17.72;46.95;99664.59;5092089;28;20010;-56
2023/04/20 12:05:27;;;;;;;;;;;;;;;18.73;44.49;99664.75;5089986;28;19924;-56
2023/04/20 12:07:52;;;;;;;;;;;;;;;18.55;42.88;99655.28;5092704;28;20169;-56
2023/04/20 12:10:18;;;;;;;;;;;;;;;18.24;44.41;99653.81;5093706;28;19916;-56
2023/04/20 12:12:43;;;;;;;;;;;;;;;18.41;45.82;99649.97;5092972;28;19912;-56
2023/04/20 12:15:08;;;;;;;;;;;;;;;17.90;44.91;99647.22;5086606;28;19925;-56
2023/04/20 12:17:34;;;;;;;;;;;;;;;18.41;45.26;99647.28;5073774;28;19948;-56
2023/04/20 12:19:59;;;;;;;;;;;;;;;18.67;43.56;99649.00;5089526;28;19924;-56
2023/04/20 12:22:24;;;;;;;;;;;;;;;18.44;42.78;99647.06;5092929;28;20002;-56
2023/04/20 12:24:50;;;;;;;;;;;;;;;18.80;42.80;99639.06;5094289;28;20003;-56
2023/04/20 12:27:15;;;;;;;;;;;;;;;18.44;42.58;99636.28;5092589;28;19927;-56
2023/04/20 12:29:40;;;;;;;;;;;;;;;18.94;43.57;99637.09;5093778;28;19916;-56
2023/04/20 12:32:06;;;;;;;;;;;;;;;19.68;43.79;99623.47;5093988;28;19919;-56
2023/04/20 12:34:31;;;;;;;;;;;;;;;20.17;41.58;99634.94;5092730;28;20018;-56
2023/04/20 12:36:56;;;;;;;;;;;;;;;20.83;41.48;99626.03;5093709;28;19947;-56
2023/04/20 12:39:21;;;;;;;;;;;;;;;21.44;40.18;99635.44;5093764;28;20383;-56
2023/04/20 12:41:47;;;;;;;;;;;;;;;21.95;37.99;99628.38;5073987;28;19923;-56
2023/04/20 12:44:12;;;;;;;;;;;;;;;21.44;36.60;99638.16;5092545;28;19923;-56